createdAt,value
2023-04-28T00:00:12.268Z,19.70
2023-04-28T00:03:01.021Z,19.70
2023-04-28T00:05:29.395Z,19.80
2023-04-28T00:07:58.031Z,19.70
2023-04-28T00:10:26.313Z,19.80
2023-04-28T00:12:54.893Z,19.70
2023-04-28T00:15:23.402Z,19.70
2023-04-28T00:17:53.642Z,19.70
2023-04-28T00:20:22.029Z,19.70
2023-04-28T00:22:50.825Z,19.70
2023-04-28T00:25:19.101Z,19.70
2023-04-28T00:27:49.025Z,19.70
2023-04-28T00:30:17.834Z,19.70
2023-04-28T00:32:46.439Z,19.70
2023-04-28T00:35:14.789Z,19.70
2023-04-28T00:37:44.618Z,19.70
2023-04-28T00:40:13.295Z,19.70
2023-04-28T00:42:41.852Z,19.70
2023-04-28T00:45:11.685Z,19.70
2023-04-28T00:47:41.713Z,19.60
2023-04-28T00:50:10.740Z,19.70
2023-04-28T00:52:39.931Z,19.60
2023-04-28T00:55:08.776Z,19.60
2023-04-28T00:57:37.653Z,19.70
2023-04-28T01:00:06.938Z,19.60
2023-04-28T01:02:36.846Z,19.60
2023-04-28T01:05:05.671Z,19.60
2023-04-28T01:07:35.665Z,19.60
2023-04-28T01:10:07.275Z,19.60
2023-04-28T01:12:37.004Z,19.60
2023-04-28T01:15:06.159Z,19.60
2023-04-28T01:17:34.915Z,19.60
2023-04-28T01:20:04.773Z,19.60
2023-04-28T01:22:33.806Z,19.60
2023-04-28T01:25:04.815Z,19.60
2023-04-28T01:27:35.525Z,19.60
2023-04-28T01:30:04.748Z,19.60
2023-04-28T01:32:33.450Z,19.60
2023-04-28T01:35:01.732Z,19.60
2023-04-28T01:37:30.679Z,19.60
2023-04-28T01:39:58.890Z,19.50
2023-04-28T01:42:28.761Z,19.50
2023-04-28T01:44:57.020Z,19.60
2023-04-28T01:47:25.938Z,19.60
2023-04-28T01:49:54.196Z,19.50
2023-04-28T01:52:24.608Z,19.50
2023-04-28T01:54:53.120Z,19.50
2023-04-28T01:57:23.006Z,19.60
2023-04-28T01:59:53.729Z,19.60
2023-04-28T02:02:22.612Z,19.50
2023-04-28T02:04:51.063Z,19.50
2023-04-28T02:07:20.415Z,19.60
2023-04-28T02:09:48.784Z,19.60
2023-04-28T02:12:17.747Z,19.50
2023-04-28T02:14:46.232Z,19.50
2023-04-28T02:17:14.773Z,19.50
2023-04-28T02:19:44.432Z,19.50
2023-04-28T02:22:14.881Z,19.50
2023-04-28T02:24:43.101Z,19.40
2023-04-28T02:27:11.746Z,19.30
2023-04-28T02:29:40.004Z,19.30
2023-04-28T02:32:08.853Z,19.20
2023-04-28T02:34:37.136Z,19.20
2023-04-28T02:37:05.774Z,19.10
2023-04-28T02:39:34.871Z,19.20
2023-04-28T02:42:05.562Z,19.20
2023-04-28T02:44:33.842Z,19.30
2023-04-28T02:47:02.656Z,19.30
2023-04-28T02:49:30.993Z,19.20
2023-04-28T02:52:00.997Z,19.10
2023-04-28T02:54:29.251Z,19.00
2023-04-28T02:57:00.479Z,19.10
2023-04-28T02:59:29.834Z,19.10
2023-04-28T03:01:59.713Z,19.10
2023-04-28T03:04:28.249Z,19.10
2023-04-28T03:06:56.965Z,19.10
2023-04-28T03:09:25.222Z,19.10
2023-04-28T03:11:55.125Z,19.10
2023-04-28T03:14:23.385Z,19.10
2023-04-28T03:16:53.152Z,19.10
2023-04-28T03:19:21.781Z,19.10
2023-04-28T03:21:50.376Z,19.10
2023-04-28T03:24:18.688Z,19.10
2023-04-28T03:26:51.922Z,19.20
2023-04-28T03:29:21.229Z,19.20
2023-04-28T03:31:49.842Z,19.10
2023-04-28T03:34:18.389Z,19.20
2023-04-28T03:36:47.157Z,19.10
2023-04-28T03:39:24.291Z,19.10
2023-04-28T03:41:52.869Z,19.10
2023-04-28T03:44:50.542Z,19.20
2023-04-28T03:47:19.467Z,19.20
2023-04-28T03:49:47.731Z,19.10
2023-04-28T03:52:16.471Z,19.10
2023-04-28T03:54:46.227Z,19.10
2023-04-28T03:57:14.811Z,19.20
2023-04-28T03:59:43.047Z,19.20
2023-04-28T04:02:12.737Z,19.10
2023-04-28T04:04:41.250Z,19.20
2023-04-28T04:07:11.952Z,19.10
2023-04-28T04:09:40.342Z,19.20
2023-04-28T04:12:09.143Z,19.10
2023-04-28T04:14:38.520Z,19.20
2023-04-28T04:17:07.273Z,19.20
2023-04-28T04:19:35.664Z,19.20
2023-04-28T04:22:04.255Z,19.20
2023-04-28T04:24:32.761Z,19.20
2023-04-28T04:27:02.428Z,19.10
2023-04-28T04:29:35.308Z,19.10
2023-04-28T04:32:08.842Z,19.10
2023-04-28T04:34:37.343Z,19.20
2023-04-28T04:37:07.500Z,19.20
2023-04-28T04:39:39.336Z,19.20
2023-04-28T04:42:23.446Z,19.20
2023-04-28T04:45:04.571Z,19.20
2023-04-28T04:47:33.327Z,19.20
2023-04-28T04:50:01.891Z,19.20
2023-04-28T04:52:32.878Z,19.20
2023-04-28T04:55:01.585Z,19.20
2023-04-28T04:57:32.198Z,19.10
2023-04-28T05:00:20.030Z,19.10
2023-04-28T05:02:49.237Z,19.10
2023-04-28T05:05:22.073Z,19.10
2023-04-28T05:08:12.942Z,19.10
2023-04-28T05:10:42.185Z,19.20
2023-04-28T05:13:11.435Z,19.20
2023-04-28T05:15:40.661Z,19.20
2023-04-28T05:18:23.783Z,19.30
2023-04-28T05:20:52.225Z,19.20
2023-04-28T05:23:21.471Z,19.20
2023-04-28T05:25:49.898Z,19.20
2023-04-28T05:28:20.568Z,19.20
2023-04-28T05:30:52.393Z,19.20
2023-04-28T05:33:21.818Z,19.20
2023-04-28T05:35:50.226Z,19.30
2023-04-28T05:38:21.468Z,19.20
2023-04-28T05:40:51.865Z,19.20
2023-04-28T05:43:20.704Z,19.20
2023-04-28T05:45:50.120Z,19.20
2023-04-28T05:48:19.735Z,19.20
2023-04-28T05:50:48.185Z,19.20
2023-04-28T05:53:16.783Z,19.20
2023-04-28T05:55:45.213Z,19.20
2023-04-28T05:58:14.076Z,19.20
2023-04-28T06:00:42.380Z,19.20
2023-04-28T06:03:11.626Z,19.20
2023-04-28T06:05:40.546Z,19.20
2023-04-28T06:08:10.585Z,19.20
2023-04-28T06:10:38.932Z,19.20
2023-04-28T06:13:07.565Z,19.20
2023-04-28T06:15:37.539Z,19.20
2023-04-28T06:18:07.610Z,19.20
2023-04-28T06:20:36.371Z,19.20
2023-04-28T06:23:06.980Z,19.30
2023-04-28T06:25:36.838Z,19.30
2023-04-28T06:28:07.833Z,19.20
2023-04-28T06:30:36.453Z,19.30
2023-04-28T06:33:05.620Z,19.30
2023-04-28T06:35:39.406Z,19.30
2023-04-28T06:38:08.139Z,19.30
2023-04-28T06:40:36.929Z,19.30
2023-04-28T06:43:08.132Z,19.30
2023-04-28T06:45:42.302Z,19.30
2023-04-28T06:48:11.389Z,19.30
2023-04-28T06:50:42.331Z,19.30
2023-04-28T06:53:12.954Z,19.30
2023-04-28T06:55:41.464Z,19.30
2023-04-28T06:58:10.070Z,19.30
2023-04-28T07:00:38.508Z,19.30
2023-04-28T07:03:07.288Z,19.30
2023-04-28T07:05:36.557Z,19.30
2023-04-28T07:08:07.026Z,19.40
2023-04-28T07:10:35.291Z,19.30
2023-04-28T07:13:04.028Z,19.30
2023-04-28T07:15:32.274Z,19.30
2023-04-28T07:18:01.590Z,19.30
2023-04-28T07:20:29.853Z,19.30
2023-04-28T07:22:58.504Z,19.40
2023-04-28T07:25:27.164Z,19.40
2023-04-28T07:27:55.849Z,19.40
2023-04-28T07:30:27.903Z,19.40
2023-04-28T07:32:57.325Z,19.40
2023-04-28T07:35:25.802Z,19.40
2023-04-28T07:37:55.715Z,19.40
2023-04-28T07:40:24.157Z,19.40
2023-04-28T07:42:53.212Z,19.40
2023-04-28T07:45:21.577Z,19.50
2023-04-28T07:47:50.310Z,19.50
2023-04-28T07:50:18.723Z,19.50
2023-04-28T07:52:47.686Z,19.50
2023-04-28T07:55:16.256Z,19.50
2023-04-28T07:57:44.947Z,19.50
2023-04-28T08:00:14.174Z,19.50
2023-04-28T08:02:42.888Z,19.50
2023-04-28T08:05:11.709Z,19.50
2023-04-28T08:07:40.602Z,19.50
2023-04-28T08:10:10.991Z,19.50
2023-04-28T08:12:41.005Z,19.50
2023-04-28T08:15:10.564Z,19.50
2023-04-28T08:17:39.494Z,19.50
2023-04-28T08:20:09.593Z,19.50
2023-04-28T08:22:38.194Z,19.50
2023-04-28T08:25:07.314Z,19.50
2023-04-28T08:27:38.402Z,19.50
2023-04-28T08:30:09.269Z,19.60
2023-04-28T08:32:39.233Z,19.50
2023-04-28T08:35:08.707Z,19.50
2023-04-28T08:37:37.453Z,19.50
2023-04-28T08:40:10.158Z,19.50
2023-04-28T08:42:39.803Z,19.60
2023-04-28T08:45:09.087Z,19.60
2023-04-28T08:47:41.469Z,19.60
2023-04-28T08:50:10.397Z,19.60
2023-04-28T08:52:40.125Z,19.60
2023-04-28T08:55:17.120Z,19.60
2023-04-28T08:57:55.371Z,19.60
2023-04-28T09:00:24.933Z,19.60
2023-04-28T09:02:53.721Z,19.70
2023-04-28T09:05:22.362Z,19.60
2023-04-28T09:07:52.486Z,19.70
2023-04-28T09:10:23.083Z,19.70
2023-04-28T09:12:56.103Z,19.70
2023-04-28T09:15:35.356Z,19.70
2023-04-28T09:18:07.218Z,19.70
2023-04-28T09:20:36.608Z,19.70
2023-04-28T09:23:21.268Z,19.70
2023-04-28T09:26:06.784Z,19.80
2023-04-28T09:28:36.798Z,19.80
2023-04-28T09:31:05.228Z,19.80
2023-04-28T09:33:35.266Z,19.80
2023-04-28T09:36:03.778Z,19.80
2023-04-28T09:38:32.453Z,19.80
2023-04-28T09:41:02.884Z,19.80
2023-04-28T09:43:33.023Z,19.80
2023-04-28T09:46:05.414Z,19.80
2023-04-28T09:48:38.495Z,19.80
2023-04-28T09:51:08.169Z,19.80
2023-04-28T09:53:37.224Z,19.90
2023-04-28T09:56:06.045Z,19.90
2023-04-28T09:58:35.453Z,19.90
2023-04-28T10:01:04.070Z,19.90
2023-04-28T10:03:32.965Z,19.90
2023-04-28T10:06:01.636Z,19.90
2023-04-28T10:08:30.290Z,19.90
2023-04-28T10:10:58.688Z,19.90
2023-04-28T10:13:27.818Z,19.90
2023-04-28T10:15:58.667Z,19.90
2023-04-28T10:18:28.545Z,19.90
2023-04-28T10:21:00.278Z,19.90
2023-04-28T10:24:16.457Z,19.90
2023-04-28T10:27:09.953Z,20.00
2023-04-28T10:29:39.624Z,20.00
2023-04-28T10:32:22.413Z,20.00
2023-04-28T10:34:51.504Z,20.00
2023-04-28T10:37:20.163Z,20.00
2023-04-28T10:40:46.251Z,20.00
2023-04-28T10:43:27.740Z,20.00
2023-04-28T10:46:02.752Z,20.10
2023-04-28T10:48:34.517Z,20.00
2023-04-28T10:51:04.531Z,20.00
2023-04-28T10:53:53.242Z,20.10
2023-04-28T10:56:27.516Z,20.10
2023-04-28T10:58:57.177Z,20.10
2023-04-28T11:01:27.332Z,19.90
2023-04-28T11:04:02.724Z,19.80
2023-04-28T11:06:48.127Z,19.80
2023-04-28T11:09:17.651Z,19.90
2023-04-28T11:11:56.376Z,19.90
2023-04-28T11:14:30.901Z,19.90
2023-04-28T11:17:04.352Z,19.90
2023-04-28T11:19:43.741Z,19.90
2023-04-28T11:22:18.744Z,19.90
2023-04-28T11:25:03.948Z,19.90
2023-04-28T11:27:33.622Z,19.90
2023-04-28T11:30:02.157Z,19.90
2023-04-28T11:32:35.330Z,19.90
2023-04-28T11:35:04.948Z,19.90
2023-04-28T11:37:33.653Z,19.90
2023-04-28T11:40:14.412Z,20.00
2023-04-28T11:42:52.022Z,20.00
2023-04-28T11:45:20.458Z,20.00
2023-04-28T11:47:49.896Z,20.00
2023-04-28T11:50:18.541Z,20.10
2023-04-28T11:52:53.580Z,20.00
2023-04-28T11:55:22.599Z,20.10
2023-04-28T11:58:24.234Z,20.10
2023-04-28T12:01:12.059Z,20.10
2023-04-28T12:03:45.583Z,20.10
2023-04-28T12:06:21.694Z,20.10
2023-04-28T12:08:51.715Z,20.10
2023-04-28T12:11:22.550Z,20.20
2023-04-28T12:14:11.206Z,20.20
2023-04-28T12:16:44.481Z,20.30
2023-04-28T12:19:13.410Z,20.30
2023-04-28T12:21:42.285Z,20.30
2023-04-28T12:24:17.709Z,20.30
2023-04-28T12:26:46.761Z,20.40
2023-04-28T12:29:40.316Z,20.40
2023-04-28T12:32:10.722Z,20.40
2023-04-28T12:34:40.486Z,20.40
2023-04-28T12:37:09.117Z,20.30
2023-04-28T12:39:39.807Z,20.40
2023-04-28T12:42:08.655Z,20.40
2023-04-28T12:44:37.723Z,20.40
2023-04-28T12:47:11.403Z,20.40
2023-04-28T12:49:40.112Z,20.40
2023-04-28T12:52:08.659Z,20.40
2023-04-28T12:54:37.727Z,20.30
2023-04-28T12:57:06.102Z,20.30
2023-04-28T12:59:34.834Z,20.40
2023-04-28T13:02:03.595Z,20.40
2023-04-28T13:04:32.871Z,20.40
2023-04-28T13:07:01.654Z,20.30
2023-04-28T13:09:30.393Z,20.30
2023-04-28T13:11:58.805Z,20.30
2023-04-28T13:14:29.031Z,20.40
2023-04-28T13:16:59.060Z,20.50
2023-04-28T13:19:28.028Z,20.50
2023-04-28T13:21:56.509Z,20.50
2023-04-28T13:24:26.601Z,20.50
2023-04-28T13:26:54.986Z,20.40
2023-04-28T13:29:23.854Z,20.40
2023-04-28T13:31:52.278Z,20.50
2023-04-28T13:34:21.335Z,20.50
2023-04-28T13:36:51.253Z,20.50
2023-04-28T13:39:22.879Z,20.50
2023-04-28T13:41:51.428Z,20.60
2023-04-28T13:44:21.564Z,20.60
2023-04-28T13:46:50.174Z,20.60
2023-04-28T13:49:18.990Z,20.60
2023-04-28T13:51:47.538Z,20.70
2023-04-28T13:54:16.431Z,20.70
2023-04-28T13:56:45.113Z,20.70
2023-04-28T13:59:13.909Z,20.60
2023-04-28T14:01:42.379Z,20.60
2023-04-28T14:04:11.516Z,20.70
2023-04-28T14:06:40.580Z,20.70
2023-04-28T14:09:09.625Z,20.70
2023-04-28T14:11:38.177Z,20.70
2023-04-28T14:14:06.993Z,20.80
2023-04-28T14:16:35.427Z,20.80
2023-04-28T14:19:04.235Z,20.80
2023-04-28T14:21:33.314Z,20.80
2023-04-28T14:24:01.918Z,20.70
2023-04-28T14:26:30.212Z,20.70
2023-04-28T14:29:00.823Z,20.80
2023-04-28T14:31:29.213Z,20.70
2023-04-28T14:33:57.868Z,20.80
2023-04-28T14:36:26.493Z,20.80
2023-04-28T14:38:55.197Z,20.80
2023-04-28T14:41:23.600Z,20.80
2023-04-28T14:43:52.407Z,20.80
2023-04-28T14:46:23.190Z,20.80
2023-04-28T14:48:52.864Z,21.00
2023-04-28T14:51:22.260Z,21.00
2023-04-28T14:53:51.097Z,21.00
2023-04-28T14:56:20.651Z,20.90
2023-04-28T14:58:50.099Z,20.90
2023-04-28T15:01:19.413Z,20.90
2023-04-28T15:03:49.420Z,20.90
2023-04-28T15:06:18.103Z,20.90
2023-04-28T15:08:46.889Z,21.00
2023-04-28T15:18:42.579Z,21.00
2023-04-28T15:21:10.946Z,21.10
2023-04-28T15:26:11.264Z,21.10
2023-04-28T15:51:01.835Z,21.10
2023-04-28T15:58:28.569Z,21.30
2023-04-28T16:13:27.270Z,21.20
2023-04-28T16:25:51.615Z,21.40
2023-04-28T16:30:49.739Z,21.20
2023-04-28T16:53:20.471Z,21.30
2023-04-28T17:15:41.030Z,21.30
2023-04-28T17:18:10.926Z,20.90
2023-04-28T17:20:40.369Z,20.90
2023-04-28T17:23:10.155Z,20.90
2023-04-28T17:25:39.159Z,20.90
2023-04-28T17:28:07.942Z,20.90
2023-04-28T17:30:36.998Z,20.90
2023-04-28T17:33:05.800Z,20.80
2023-04-28T17:35:34.132Z,20.80
2023-04-28T17:38:02.878Z,20.80
2023-04-28T17:40:32.091Z,20.80
2023-04-28T17:43:00.768Z,20.80
2023-04-28T17:45:29.134Z,20.80
2023-04-28T17:48:00.846Z,20.80
2023-04-28T17:50:29.639Z,20.80
2023-04-28T17:52:59.089Z,20.80
2023-04-28T17:55:27.462Z,20.80
2023-04-28T17:57:56.250Z,20.70
2023-04-28T18:00:24.572Z,20.70
2023-04-28T18:02:55.251Z,20.70
2023-04-28T18:05:24.548Z,20.70
2023-04-28T18:47:45.929Z,20.70
2023-04-28T18:50:14.527Z,20.60
2023-04-28T18:52:43.224Z,20.60
2023-04-28T18:55:11.733Z,20.60
2023-04-28T18:57:40.738Z,20.60
2023-04-28T19:00:09.999Z,20.60
2023-04-28T19:02:38.802Z,20.50
2023-04-28T19:05:07.785Z,20.60
2023-04-28T19:12:35.733Z,20.60
2023-04-28T19:15:05.608Z,20.60
2023-04-28T19:17:34.461Z,20.50
2023-04-28T19:20:04.355Z,20.50
2023-04-28T19:22:37.254Z,20.50
2023-04-28T19:25:06.933Z,20.50
2023-04-28T19:27:40.533Z,20.40
2023-04-28T19:30:11.583Z,20.40
2023-04-28T19:32:41.198Z,20.40
2023-04-28T19:35:10.085Z,20.40
2023-04-28T19:37:38.977Z,20.40
2023-04-28T19:40:08.729Z,20.40
2023-04-28T19:42:37.386Z,20.30
2023-04-28T19:45:07.538Z,20.30
2023-04-28T19:47:37.044Z,20.30
2023-04-28T19:50:06.324Z,20.30
2023-04-28T19:52:36.298Z,20.30
2023-04-28T19:55:04.994Z,20.20
2023-04-28T19:57:33.848Z,20.20
2023-04-28T20:00:02.291Z,20.20
2023-04-28T20:02:36.693Z,20.20
2023-04-28T20:05:06.080Z,20.20
2023-04-28T20:07:36.398Z,20.10
2023-04-28T20:10:06.000Z,20.20
2023-04-28T20:12:35.648Z,20.20
2023-04-28T20:15:04.266Z,20.10
2023-04-28T20:17:32.981Z,20.10
2023-04-28T20:20:02.654Z,20.00
2023-04-28T20:22:32.206Z,20.00
2023-04-28T20:25:01.820Z,19.90
2023-04-28T20:27:30.618Z,19.90
2023-04-28T20:29:59.459Z,19.90
2023-04-28T20:32:28.280Z,20.00
2023-04-28T20:34:56.660Z,19.90
2023-04-28T20:37:27.207Z,19.80
2023-04-28T20:39:55.708Z,19.90
2023-04-28T20:42:24.685Z,19.80
2023-04-28T20:44:53.048Z,19.80
2023-04-28T20:47:22.058Z,19.80
2023-04-28T20:49:50.809Z,19.70
2023-04-28T20:52:19.903Z,19.60
2023-04-28T20:54:48.653Z,19.60
2023-04-28T20:57:18.580Z,19.50
2023-04-28T20:59:46.976Z,19.50
2023-04-28T21:02:15.748Z,19.50
2023-04-28T21:04:44.198Z,19.50
2023-04-28T21:07:13.063Z,19.40
2023-04-28T21:09:42.277Z,19.40
2023-04-28T21:12:11.112Z,19.40
2023-04-28T21:14:39.890Z,19.40
2023-04-28T21:17:09.031Z,19.30
2023-04-28T21:19:37.551Z,19.30
2023-04-28T21:22:06.299Z,19.30
2023-04-28T21:24:34.725Z,19.30
2023-04-28T21:27:05.154Z,19.20
2023-04-28T21:29:34.693Z,19.20
2023-04-28T21:32:03.512Z,19.20
2023-04-28T21:34:32.755Z,19.30
2023-04-28T21:37:02.698Z,19.50
2023-04-28T21:39:31.067Z,19.60
2023-04-28T21:41:59.876Z,19.80
2023-04-28T21:44:28.624Z,19.80
2023-04-28T21:46:57.416Z,19.90
2023-04-28T21:49:25.799Z,19.80
2023-04-28T21:51:54.507Z,19.90
2023-04-28T21:54:22.794Z,19.90
2023-04-28T21:56:51.700Z,19.90
2023-04-28T21:59:20.174Z,19.90
2023-04-28T22:01:50.172Z,19.90
2023-04-28T22:04:18.607Z,19.90
2023-04-28T22:06:47.312Z,19.90
2023-04-28T22:09:15.570Z,19.90
2023-04-28T22:11:45.455Z,19.90
2023-04-28T22:14:21.550Z,19.90
2023-04-28T22:17:02.421Z,19.90
2023-04-28T22:19:30.691Z,19.90
2023-04-28T22:21:59.331Z,19.90
2023-04-28T22:24:27.989Z,20.00
2023-04-28T22:26:58.214Z,20.00
2023-04-28T22:29:26.447Z,20.00
2023-04-28T22:31:55.090Z,20.00
2023-04-28T22:34:23.601Z,20.00
2023-04-28T22:36:52.393Z,20.00
2023-04-28T22:39:20.719Z,20.00
2023-04-28T22:41:49.273Z,20.00
2023-04-28T22:44:17.612Z,20.00
2023-04-28T22:46:46.378Z,20.00
2023-04-28T22:49:14.732Z,20.00
2023-04-28T22:51:44.331Z,20.10
2023-04-28T22:54:12.693Z,20.00
2023-04-28T22:56:41.878Z,20.00
2023-04-28T22:59:10.217Z,20.00
2023-04-28T23:01:40.243Z,20.00
2023-04-28T23:04:09.375Z,20.10
2023-04-28T23:06:38.999Z,20.10
2023-04-28T23:09:07.367Z,20.10
2023-04-28T23:11:36.033Z,20.10
2023-04-28T23:14:04.273Z,20.10
2023-04-28T23:16:34.109Z,20.10
2023-04-28T23:19:02.496Z,20.10
2023-04-28T23:21:32.121Z,20.10
2023-04-28T23:24:00.461Z,20.10
2023-04-28T23:26:29.173Z,20.10
2023-04-28T23:28:57.724Z,20.00
2023-04-28T23:31:26.422Z,20.10
2023-04-28T23:33:54.697Z,20.10
2023-04-28T23:36:23.320Z,20.00
2023-04-28T23:38:51.640Z,20.10
2023-04-28T23:41:21.294Z,20.10
2023-04-28T23:43:50.159Z,20.10
2023-04-28T23:46:19.089Z,20.10
2023-04-28T23:48:47.749Z,20.00
2023-04-28T23:51:16.835Z,20.00
2023-04-28T23:53:45.416Z,20.00
2023-04-28T23:56:15.093Z,20.00
2023-04-28T23:58:43.697Z,20.00
